Old Res Weather

Lexington, Massachusetts, USA

34°F
11/30/2022 2:02am 
  • Lexington Conditions: Overcast
  • Temperature: 34.3°F / 1.3°CWarmer 1.8°F than last hour.
  • Dew Point: 32.0°FIncreased 2.3°Fsince last hour.
  • Relative Humidity: 91%Increased 2.0% since last hour.
  • Wind: Calm, 10-min avg: Calm, gust: None
  • Barometer: 30.30 in Steady
  • Visibility: 10 miles
  • Rain Today: 0.00 in
  • UV Index: $VPuv None
  •   
Southeast Middlesex County, MA - Wind Advisory
 - SEE ALL NEARBY ALERTS -

Nearby Reports - Official Weather Stations - Current Conditions

Data from the National Weather Service

KBED - Bedford, Massachusetts, USA


Distance from station: NW 4mi, 6km

Updated Wed Nov 30, 2022 1:51am EST

Overcast

Overcast

Wind from calm

Wind:

Calm

Temperature: 34°F (1°C)

Dew Point: 30°F (-1°C)

Humidity: 87%

Barometer: 30.28 in (1025.4 hPa)

Clouds: Overcast

Visibility: 10 miles (16 km)

Cloud details: Overcast 3400 ft


2022/11/30 06:51 KBED 300651Z AUTO 00000KT 10SM OVC034 01/M01 A3028 RMK AO2 SLP270 T00061011

KBOS - Boston, Massachusetts, USA


Distance from station: ESE 13mi, 20km

Updated Wed Nov 30, 2022 1:54am EST

Overcast

Overcast

Wind from ESE

Wind:

ESE 7 mph, 11 km/h

Temperature: 43°F (6°C)

Wind Chill: 39°F (4°C)

Dew Point: 34°F (1°C)

Humidity: 71%

Barometer: 30.30 in (1026.1 hPa)

Clouds: Overcast

Visibility: 10 miles (16 km)

Cloud details: Overcast 3800 ft


2022/11/30 06:54 KBOS 300654Z 11006KT 10SM OVC038 06/01 A3030 RMK AO2 SLP259 T00560011

KOWD - Norwood, Massachusetts, USA


Distance from station: SSE 18mi, 29km

Updated Wed Nov 30, 2022 1:53am EST

Overcast

Overcast

Wind from calm

Wind:

Calm

Temperature: 36°F (2°C)

Dew Point: 32°F (0°C)

Humidity: 87%

Barometer: 30.30 in (1026.1 hPa)

Clouds: Overcast

Visibility: 10 miles (16 km)

Cloud details: Overcast 3700 ft


2022/11/30 06:53 KOWD 300653Z AUTO 00000KT 10SM OVC037 02/00 A3030 RMK AO2 SLP260 T00220000

KBVY - Beverly, Massachusetts, USA


Distance from station: ENE 20mi, 32km

Updated Wed Nov 30, 2022 1:53am EST

Overcast

Overcast

Wind from calm

Wind:

Calm

Temperature: 37°F (3°C)

Dew Point: 30°F (-1°C)

Humidity: 75%

Barometer: 30.30 in (1026.1 hPa)

Clouds: Overcast

Visibility: 10 miles (16 km)

Cloud details: Overcast 3900 ft


2022/11/30 06:53 KBVY 300653Z AUTO 00000KT 10SM OVC039 03/M01 A3030 RMK AO2 SLP256 T00281006

KLWM - Lawrence, Massachusetts, USA


Distance from station: NNE 20mi, 33km

Updated Wed Nov 30, 2022 1:54am EST

Overcast

Overcast

Wind from calm

Wind:

Calm

Temperature: 37°F (3°C)

Dew Point: 30°F (-1°C)

Humidity: 75%

Barometer: 30.31 in (1026.4 hPa)

Clouds: Overcast

Visibility: 10 miles (16 km)

Cloud details: Overcast 3500 ft


2022/11/30 06:54 KLWM 300654Z AUTO 00000KT 10SM OVC035 03/M01 A3031 RMK AO2 SLP264 T00281006

KFIT - Fitchburg, Massachusetts, USA


Distance from station: WNW 27mi, 43km

Updated Wed Nov 30, 2022 1:52am EST

Overcast

Overcast

Wind from calm

Wind:

Calm

Temperature: 32°F (0°C)

Dew Point: 25°F (-4°C)

Humidity: 75%

Barometer: 30.29 in (1025.7 hPa)

Clouds: Overcast

Visibility: 10 miles (16 km)

Cloud details: Overcast 3100 ft


2022/11/30 06:52 KFIT 300652Z AUTO 00000KT 10SM OVC031 00/M04 A3029 RMK AO2 SLP261 T00001039

KASH - Nashua/Boire Fld, New Hampshire, USA


Distance from station: NNW 28mi, 45km

Updated Wed Nov 30, 2022 1:56am EST

Overcast

Overcast

Wind from calm

Wind:

Calm

Temperature: 28°F (-2°C)

Dew Point: 28°F (-2°C)

Humidity: 100%

Barometer: 30.29 in (1025.7 hPa)

Clouds: Overcast

Visibility: 10 miles (16 km)

Cloud details: Overcast 3300 ft


2022/11/30 06:56 KASH 300656Z AUTO 00000KT 10SM OVC033 M02/M02 A3029 RMK AO2 SLP265 T10171017

KORH - Worcester, Massachusetts, USA


Distance from station: WSW 34mi, 54km

Updated Wed Nov 30, 2022 1:54am EST

Overcast

Overcast

Wind from SE

Wind:

SE 3 mph, 6 km/h

Temperature: 36°F (2°C)

Dew Point: 27°F (-3°C)

Humidity: 70%

Barometer: 30.25 in (1024.4 hPa)

Clouds: Overcast

Visibility: 10 miles (16 km)

Cloud details: Overcast 2500 ft


2022/11/30 06:54 KORH 300654Z AUTO 13003KT 10SM OVC025 02/M03 A3025 RMK AO2 SLP253 T00171028

KMHT - Manchester, New Hampshire, USA


Distance from station: NNW 36mi, 57km

Updated Wed Nov 30, 2022 1:53am EST

Mostly cloudy

Mostly cloudy

Wind from calm

Wind:

Calm

Temperature: 30°F (-1°C)

Dew Point: 27°F (-3°C)

Humidity: 86%

Barometer: 30.27 in (1025.1 hPa)

Clouds: Mostly cloudy

Visibility: 10 miles (16 km)

Cloud details: Mostly cloudy 3300 ft


2022/11/30 06:53 KMHT 300653Z 00000KT 10SM BKN033 M01/M03 A3027 RMK AO2 SLP270 T10061028

KGHG - Marshfield, Massachusetts, USA


Distance from station: SE 38mi, 60km

Updated Wed Nov 30, 2022 1:35am EST

Wind from calm

Wind:

Calm

Temperature: 36°F (2°C)

Dew Point: 32°F (0°C)

Humidity: 87%

Barometer: 30.30 in (1026.1 hPa)

Visibility: 10 miles (16 km)


2022/11/30 06:35 KGHG 300635Z AUTO 00000KT 10SM 02/00 A3030 RMK AO2

KSFZ - Pawtucket, Rhode Island, USA


Distance from station: SSW 38mi, 61km

Updated Wed Nov 30, 2022 1:56am EST

Overcast

Overcast

Wind from calm

Wind:

Calm

Temperature: 36°F (2°C)

Dew Point: 30°F (-1°C)

Humidity: 81%

Barometer: 30.28 in (1025.4 hPa)

Clouds: Overcast

Visibility: 10 miles (16 km)

Cloud details: Mostly cloudy 2300 ft
Overcast 2800 ft


2022/11/30 06:56 KSFZ 300656Z AUTO 00000KT 10SM BKN023 OVC028 02/M01 A3028 RMK AO2 SLP257 T00171011 FZRANO

KTAN - Taunton, Massachusetts, USA


Distance from station: SSE 40mi, 64km

Updated Wed Nov 30, 2022 1:52am EST

Barometer: 30.28 in (1025.4 hPa)


2022/11/30 06:52 KTAN 300652Z AUTO A3028 RMK AO2 SLPNO PWINO FZRANO TSNO $

KPYM - Plymouth, Massachusetts, USA


Distance from station: SE 44mi, 71km

Updated Wed Nov 30, 2022 1:52am EST

Clear

Clear

Wind from calm

Wind:

Calm

Temperature: 30°F (-1°C)

Dew Point: 28°F (-2°C)

Humidity: 93%

Barometer: 30.30 in (1026.1 hPa)

Clouds: Clear

Visibility: 10 miles (16 km)


2022/11/30 06:52 KPYM 300652Z AUTO 00000KT 10SM CLR M01/M02 A3030 RMK AO2 SLP265 T10061022

KAFN - Jaffrey, New Hampshire, USA


Distance from station: WNW 46mi, 74km

Updated Wed Nov 30, 2022 1:52am EST

Mostly cloudy

Mostly cloudy

Wind from calm

Wind:

Calm

Temperature: 28°F (-2°C)

Dew Point: 25°F (-4°C)

Humidity: 86%

Barometer: 30.22 in (1023.4 hPa)

Clouds: Mostly cloudy

Visibility: 10 miles (16 km)

Cloud details: Mostly cloudy 2300 ft


2022/11/30 06:52 KAFN 300652Z AUTO 00000KT 10SM BKN023 M02/M04 A3022 RMK AO2 SLP251 T10171039

KPSM - Portsmouth/Pease, New Hampshire, USA


Distance from station: NNE 49mi, 78km

Updated Wed Nov 30, 2022 1:55am EST

Overcast

Overcast

Wind from SSW

Wind:

SSW 7 mph, 11 km/h

Temperature: 39°F (4°C)

Wind Chill: 34°F (1°C)

Dew Point: 32°F (0°C)

Humidity: 75%

Barometer: 30.30 in (1026.1 hPa)

Clouds: Overcast

Visibility: 10 miles (16 km)

Cloud details: Few Clouds 2800 ft
Overcast 4300 ft


2022/11/30 06:55 KPSM 300655Z 21006KT 10SM FEW028 OVC043 04/00 A3030 RMK AO2A SLP264 T00400000

KPVD - Providence/Green, Rhode Island, USA


Distance from station: S 51mi, 81km

Updated Wed Nov 30, 2022 1:51am EST

Overcast

Overcast

Wind from calm

Wind:

Calm

Temperature: 37°F (3°C)

Dew Point: 30°F (-1°C)

Humidity: 75%

Barometer: 30.29 in (1025.7 hPa)

Clouds: Overcast

Visibility: 10 miles (16 km)

Cloud details: Mostly cloudy 2600 ft
Overcast 3400 ft


2022/11/30 06:51 KPVD 300651Z AUTO 00000KT 10SM BKN026 OVC034 03/M01 A3029 RMK AO2 SLP258 T00281011

KORE - Orange, Massachusetts, USA


Distance from station: W 54mi, 86km

Updated Wed Nov 30, 2022 1:52am EST

Few Clouds

Few Clouds

Wind from calm

Wind:

Calm

Temperature: 25°F (-4°C)

Dew Point: 21°F (-6°C)

Humidity: 86%

Barometer: 30.27 in (1025.1 hPa)

Clouds: Few Clouds

Visibility: 10 miles (16 km)

Cloud details: Few Clouds 2900 ft


2022/11/30 06:52 KORE 300652Z AUTO 00000KT 10SM FEW029 M04/M06 A3027 RMK AO2 SLP256 I1000 T10441061

KEWB - New Bedford, Massachusetts, USA


Distance from station: SSE 54mi, 87km

Updated Wed Nov 30, 2022 1:53am EST

Overcast

Overcast

Wind from calm

Wind:

Calm

Temperature: 36°F (2°C)

Dew Point: 34°F (1°C)

Humidity: 93%

Barometer: 30.29 in (1025.7 hPa)

Clouds: Overcast

Visibility: 10 miles (16 km)

Cloud details: Overcast 3600 ft


2022/11/30 06:53 KEWB 300653Z AUTO 00000KT 10SM OVC036 02/01 A3029 RMK AO2 SLP259 T00220011

KCON - Concord, New Hampshire, USA


Distance from station: NNW 54mi, 88km

Updated Wed Nov 30, 2022 1:51am EST

Mostly cloudy

Mostly cloudy

Wind from E

Wind:

E 10 mph, 17 km/h

Temperature: 28°F (-2°C)

Wind Chill: 19°F (-7°C)

Dew Point: 27°F (-3°C)

Humidity: 93%

Barometer: 30.28 in (1025.4 hPa)

Clouds: Mostly cloudy

Visibility: 10 miles (16 km)

Cloud details: Few Clouds 2500 ft
Mostly cloudy 3300 ft


2022/11/30 06:51 KCON 300651Z AUTO 10009KT 10SM FEW025 BKN033 M02/M03 A3028 RMK AO2 SLP259 T10171028

KMWN - Mount Washington, New Hampshire, USA


Distance from station: N 127mi, 204km

Updated Wed Nov 30, 2022 12:58am EST

Mostly cloudy

Mostly cloudy

Wind from SSW

Wind:

SSW 35 mph, 56 km/h

Temperature: 23°F (-5°C)

Wind Chill: 4°F (-16°C)

Dew Point: 5°F (-15°C)

Humidity: 46%

Clouds: Mostly cloudy

Visibility: 60 miles (96 km)

Cloud details: Partly cloudy 5000 ft
Mostly cloudy 10000 ft
Mostly cloudy 22000 ft


2022/11/30 05:58 KMWN 300558Z 20030KT 60SM BKN/// SCT050 BKN100 BKN220 M05/M15 RMK TPS LWR BKN052 4/008 11033 21055